Terminal Aerodrome Forecast
Issued by NWS Topeka, KS

Home | Current Version | Previous Version | Text Only | Print | Product List | Glossary On
Versions: 1 2 3 4 5 6 7 8 9 10 11 12 13 14 15 16 17 18
000
FTUS43 KTOP 260550 AAA
TAFTOP
TAF AMD
KTOP 260550Z 2606/2706 11006KT P6SM VCSH BKN090
      TEMPO 2607/2609 6SM TSRA BKN050CB
     FM261000 VRB04KT P6SM SCT020 BKN050
     FM261800 36007KT P6SM SCT025 BKN050
     FM270000 03004KT P6SM FEW250=

USA.gov is the U.S. government's official web portal to all federal, state and local government web resources and services.